createdAt,value
2023-01-21T00:00:00.120Z,984.39
2023-01-21T00:00:32.336Z,984.39
2023-01-21T00:01:16.919Z,984.29
2023-01-21T00:01:32.956Z,984.29
2023-01-21T00:02:04.017Z,984.39
2023-01-21T00:02:34.595Z,984.39
2023-01-21T00:03:23.252Z,984.29
2023-01-21T00:03:36.436Z,984.29
2023-01-21T00:04:07.215Z,984.39
2023-01-21T00:04:37.890Z,984.39
2023-01-21T00:05:09.969Z,984.49
2023-01-21T00:05:42.516Z,984.49
2023-01-21T00:06:12.613Z,984.29
2023-01-21T00:06:43.351Z,984.29
2023-01-21T00:07:14.084Z,984.39
2023-01-21T00:07:43.807Z,984.39
2023-01-21T00:08:14.388Z,984.49
2023-01-21T00:08:45.699Z,984.49
2023-01-21T00:09:16.889Z,984.49
2023-01-21T00:09:47.719Z,984.49
2023-01-21T00:10:19.123Z,984.49
2023-01-21T00:10:50.990Z,984.29
2023-01-21T00:11:20.946Z,984.29
2023-01-21T00:12:10.344Z,984.29
2023-01-21T00:12:41.189Z,984.29
2023-01-21T00:12:54.980Z,984.49
2023-01-21T00:13:25.450Z,984.49
2023-01-21T00:13:56.771Z,984.29
2023-01-21T00:14:26.950Z,984.29
2023-01-21T00:14:58.049Z,984.29
2023-01-21T00:15:29.376Z,984.29
2023-01-21T00:16:00.553Z,984.49
2023-01-21T00:17:03.392Z,984.39
2023-01-21T00:17:33.247Z,984.39
2023-01-21T00:18:04.888Z,984.39
2023-01-21T00:18:35.242Z,984.39
2023-01-21T00:19:05.816Z,984.49
2023-01-21T00:19:36.668Z,984.49
2023-01-21T00:20:08.208Z,984.29
2023-01-21T00:20:39.098Z,984.29
2023-01-21T00:21:10.158Z,984.59
2023-01-21T00:21:42.356Z,984.59
2023-01-21T00:22:12.603Z,984.49
2023-01-21T00:22:44.198Z,984.49
2023-01-21T00:23:15.133Z,984.29
2023-01-21T00:23:45.112Z,984.59
2023-01-21T00:24:15.315Z,984.59
2023-01-21T00:24:46.247Z,984.49
2023-01-21T00:25:17.245Z,984.49
2023-01-21T00:25:49.221Z,984.49
2023-01-21T00:26:21.584Z,984.49
2023-01-21T00:26:50.733Z,984.49
2023-01-21T00:27:23.248Z,984.49
2023-01-21T00:27:55.067Z,984.39
2023-01-21T00:28:24.774Z,984.39
2023-01-21T00:28:55.612Z,984.59
2023-01-21T00:29:26.327Z,984.59
2023-01-21T00:29:56.801Z,984.49
2023-01-21T00:30:28.755Z,984.49
2023-01-21T00:31:00.228Z,984.59
2023-01-21T00:31:30.681Z,984.59
2023-01-21T00:32:03.613Z,984.29
2023-01-21T00:32:33.858Z,984.29
2023-01-21T00:33:04.189Z,984.49
2023-01-21T00:33:34.756Z,984.49
2023-01-21T00:34:04.724Z,984.59
2023-01-21T00:34:36.688Z,984.59
2023-01-21T00:35:06.549Z,984.69
2023-01-21T00:35:37.655Z,984.69
2023-01-21T00:36:09.243Z,984.39
2023-01-21T00:36:41.622Z,984.39
2023-01-21T00:37:12.258Z,984.79
2023-01-21T00:37:43.640Z,984.79
2023-01-21T00:38:13.764Z,984.69
2023-01-21T00:39:02.022Z,984.59
2023-01-21T00:39:15.227Z,984.59
2023-01-21T00:39:45.705Z,984.59
2023-01-21T00:40:17.507Z,984.59
2023-01-21T00:40:47.638Z,984.59
2023-01-21T00:41:50.109Z,984.59
2023-01-21T00:42:22.376Z,984.59
2023-01-21T00:42:53.092Z,984.59
2023-01-21T00:43:25.152Z,984.59
2023-01-21T00:43:54.580Z,984.39
2023-01-21T00:44:25.961Z,984.39
2023-01-21T00:44:56.026Z,984.69
2023-01-21T00:45:26.691Z,984.69
2023-01-21T00:45:58.090Z,984.59
2023-01-21T00:46:28.958Z,984.59
2023-01-21T00:47:00.023Z,984.69
2023-01-21T00:47:47.581Z,984.69
2023-01-21T00:48:03.257Z,984.69
2023-01-21T00:48:33.475Z,984.69
2023-01-21T00:49:04.319Z,984.69
2023-01-21T00:49:35.417Z,984.69
2023-01-21T00:50:06.523Z,984.79
2023-01-21T00:50:36.471Z,984.79
2023-01-21T00:51:39.228Z,984.59
2023-01-21T00:52:10.611Z,984.59
2023-01-21T00:52:43.045Z,984.59
2023-01-21T00:53:12.733Z,984.79
2023-01-21T00:53:44.389Z,984.79
2023-01-21T00:54:15.151Z,984.90
2023-01-21T00:54:45.254Z,984.49
2023-01-21T00:55:15.690Z,984.49
2023-01-21T00:55:46.751Z,984.90
2023-01-21T00:56:17.740Z,984.90
2023-01-21T00:56:49.228Z,984.69
2023-01-21T00:57:20.671Z,984.69
2023-01-21T00:57:51.800Z,985.00
2023-01-21T00:58:21.268Z,985.00
2023-01-21T00:58:54.255Z,984.90
2023-01-21T00:59:25.073Z,984.90
2023-01-21T00:59:55.294Z,984.69
2023-01-21T01:00:28.814Z,984.69
2023-01-21T01:00:56.491Z,984.69
2023-01-21T01:01:27.559Z,984.69
2023-01-21T01:01:58.905Z,984.79
2023-01-21T01:02:30.150Z,984.79
2023-01-21T01:03:01.031Z,984.79
2023-01-21T01:03:33.097Z,984.79
2023-01-21T01:04:03.762Z,984.69
2023-01-21T01:04:34.535Z,984.69
2023-01-21T01:05:04.876Z,984.90
2023-01-21T01:05:39.747Z,984.90
2023-01-21T01:06:06.840Z,984.90
2023-01-21T01:06:37.534Z,984.90
2023-01-21T01:07:08.910Z,985.10
2023-01-21T01:07:39.957Z,985.10
2023-01-21T01:08:10.848Z,985.00
2023-01-21T01:08:42.557Z,985.00
2023-01-21T01:09:13.851Z,984.90
2023-01-21T01:11:12.031Z,984.90
2023-01-21T01:11:17.561Z,985.00
2023-01-21T01:11:49.000Z,984.90
2023-01-21T01:12:54.643Z,985.00
2023-01-21T01:13:57.923Z,985.00
2023-01-21T01:14:23.320Z,985.00
2023-01-21T01:14:54.994Z,985.00
2023-01-21T01:15:28.399Z,985.00
2023-01-21T01:16:02.043Z,985.00
2023-01-21T01:16:31.782Z,985.00
2023-01-21T01:16:59.221Z,985.10
2023-01-21T01:17:29.005Z,985.10
2023-01-21T01:18:00.983Z,985.10
2023-01-21T01:18:33.769Z,985.10
2023-01-21T01:19:02.840Z,985.10
2023-01-21T01:19:34.551Z,985.10
2023-01-21T01:20:21.987Z,985.10
2023-01-21T01:20:35.214Z,985.10
2023-01-21T01:21:18.338Z,984.90
2023-01-21T01:21:54.146Z,984.90
2023-01-21T01:22:08.956Z,984.90
2023-01-21T01:22:42.264Z,984.90
2023-01-21T01:23:10.954Z,985.10
2023-01-21T01:23:42.173Z,985.10
2023-01-21T01:24:13.295Z,985.10
2023-01-21T01:24:46.454Z,985.10
2023-01-21T01:25:16.238Z,985.30
2023-01-21T01:25:46.355Z,985.00
2023-01-21T01:26:16.518Z,985.00
2023-01-21T01:26:49.055Z,985.30
2023-01-21T01:27:19.197Z,985.30
2023-01-21T01:27:50.218Z,985.20
2023-01-21T01:28:19.804Z,985.20
2023-01-21T01:29:09.527Z,985.10
2023-01-21T01:29:22.665Z,985.10
2023-01-21T01:29:53.759Z,985.10
2023-01-21T01:30:29.211Z,985.10
2023-01-21T01:31:05.603Z,985.20
2023-01-21T01:31:27.354Z,985.20
2023-01-21T01:31:58.507Z,985.20
2023-01-21T01:32:29.874Z,985.20
2023-01-21T01:32:59.960Z,985.40
2023-01-21T01:33:31.777Z,985.40
2023-01-21T01:34:03.910Z,985.40
2023-01-21T01:34:51.852Z,985.20
2023-01-21T01:35:10.131Z,985.20
2023-01-21T01:35:35.885Z,985.20
2023-01-21T01:36:06.124Z,985.20
2023-01-21T01:36:37.509Z,985.20
2023-01-21T01:37:08.923Z,985.30
2023-01-21T01:37:39.253Z,985.30
2023-01-21T01:38:10.233Z,985.20
2023-01-21T01:38:42.011Z,985.20
2023-01-21T01:39:15.012Z,985.20
2023-01-21T01:39:43.426Z,985.20
2023-01-21T01:40:31.390Z,985.40
2023-01-21T01:40:45.594Z,985.40
2023-01-21T01:41:16.455Z,985.20
2023-01-21T01:41:48.031Z,985.30
2023-01-21T01:42:16.883Z,985.30
2023-01-21T01:42:49.758Z,985.30
2023-01-21T01:43:50.572Z,985.30
2023-01-21T01:44:21.194Z,985.30
2023-01-21T01:44:52.339Z,985.30
2023-01-21T01:45:26.225Z,985.30
2023-01-21T01:45:55.733Z,985.40
2023-01-21T01:46:28.256Z,985.40
2023-01-21T01:46:57.667Z,985.40
2023-01-21T01:47:27.216Z,985.40
2023-01-21T01:47:57.841Z,985.40
2023-01-21T01:48:28.719Z,985.40
2023-01-21T01:49:00.030Z,985.40
2023-01-21T01:49:31.431Z,985.40
2023-01-21T01:50:04.752Z,985.30
2023-01-21T01:50:35.285Z,985.30
2023-01-21T01:51:06.018Z,985.30
2023-01-21T01:51:37.290Z,985.30
2023-01-21T01:52:07.880Z,985.40
2023-01-21T01:52:38.079Z,985.40
2023-01-21T01:53:08.552Z,985.40
2023-01-21T01:53:39.868Z,985.40
2023-01-21T01:54:10.911Z,985.40
2023-01-21T01:54:42.914Z,985.40
2023-01-21T01:55:13.659Z,985.40
2023-01-21T01:55:44.074Z,985.40
2023-01-21T01:56:18.065Z,985.30
2023-01-21T02:09:27.076Z,985.61
2023-01-21T02:09:57.184Z,985.51
2023-01-21T02:10:29.675Z,985.51
2023-01-21T02:10:58.868Z,985.71
2023-01-21T02:11:33.765Z,985.71
2023-01-21T02:12:00.520Z,985.40
2023-01-21T02:12:33.334Z,985.40
2023-01-21T02:13:01.194Z,985.30
2023-01-21T02:13:32.618Z,985.30
2023-01-21T02:14:04.286Z,985.61
2023-01-21T02:14:32.740Z,985.61
2023-01-21T02:15:23.816Z,985.40
2023-01-21T02:15:39.905Z,985.40
2023-01-21T02:16:07.173Z,985.51
2023-01-21T02:16:43.273Z,985.51
2023-01-21T02:17:25.735Z,985.61
2023-01-21T02:17:38.768Z,985.61
2023-01-21T02:18:09.840Z,985.61
2023-01-21T02:19:27.176Z,985.61
2023-01-21T02:19:44.533Z,985.61
2023-01-21T02:20:15.395Z,985.40
2023-01-21T02:20:49.557Z,985.40
2023-01-21T02:21:16.288Z,985.51
2023-01-21T02:21:46.705Z,985.81
2023-01-21T02:22:17.489Z,985.81
2023-01-21T02:22:48.531Z,985.61
2023-01-21T02:23:20.681Z,985.61
2023-01-21T02:23:52.194Z,985.51
2023-01-21T02:24:24.835Z,985.51
2023-01-21T02:24:53.962Z,985.71
2023-01-21T02:25:25.628Z,985.71
2023-01-21T02:26:13.972Z,985.40
2023-01-21T02:26:26.881Z,985.40
2023-01-21T02:27:30.828Z,985.40
2023-01-21T02:27:58.717Z,985.30
2023-01-21T02:28:29.513Z,985.30
2023-01-21T02:29:00.748Z,985.51
2023-01-21T02:29:32.719Z,985.51
2023-01-21T02:30:09.323Z,985.51
2023-01-21T02:31:27.745Z,985.51
2023-01-21T02:31:36.386Z,985.40
2023-01-21T02:32:26.005Z,985.51
2023-01-21T02:32:37.698Z,985.51
2023-01-21T02:33:08.940Z,985.51
2023-01-21T02:33:39.725Z,985.51
2023-01-21T02:34:10.792Z,985.51
2023-01-21T02:34:42.914Z,985.51
2023-01-21T02:35:29.796Z,985.71
2023-01-21T02:35:44.391Z,985.71
2023-01-21T02:36:16.004Z,985.30
2023-01-21T02:36:45.793Z,985.61
2023-01-21T02:37:16.501Z,985.61
2023-01-21T02:37:47.414Z,985.61
2023-01-21T02:38:18.707Z,985.61
2023-01-21T02:38:49.673Z,985.71
2023-01-21T02:39:21.299Z,985.71
2023-01-21T02:39:52.080Z,985.61
2023-01-21T02:40:24.485Z,985.61
2023-01-21T02:40:55.269Z,985.51
2023-01-21T02:41:26.213Z,985.51
2023-01-21T02:41:56.508Z,985.61
2023-01-21T02:42:27.199Z,985.61
2023-01-21T02:42:58.320Z,985.40
2023-01-21T02:43:28.493Z,985.40
2023-01-21T02:44:18.150Z,985.61
2023-01-21T02:44:30.946Z,985.61
2023-01-21T02:45:03.257Z,985.30
2023-01-21T02:45:34.814Z,985.30
2023-01-21T02:46:05.276Z,985.61
2023-01-21T02:46:35.948Z,985.61
2023-01-21T02:47:06.926Z,985.40
2023-01-21T02:47:37.712Z,985.40
2023-01-21T02:48:07.740Z,985.51
2023-01-21T02:48:39.134Z,985.51
2023-01-21T02:49:10.115Z,985.30
2023-01-21T02:49:41.453Z,985.30
2023-01-21T02:50:12.119Z,985.30
2023-01-21T02:50:43.745Z,985.30
2023-01-21T02:51:15.051Z,985.61
2023-01-21T02:51:46.138Z,985.61
2023-01-21T02:52:16.005Z,985.61
2023-01-21T02:53:04.825Z,985.40
2023-01-21T02:53:49.043Z,985.51
2023-01-21T02:54:22.156Z,985.51
2023-01-21T02:54:51.663Z,985.51
2023-01-21T02:55:34.804Z,985.51
2023-01-21T02:55:54.012Z,985.51
2023-01-21T02:57:04.962Z,985.51
2023-01-21T02:57:27.904Z,985.61
2023-01-21T02:58:28.831Z,985.51
2023-01-21T02:59:07.153Z,985.40
2023-01-21T02:59:29.900Z,985.40
2023-01-21T03:00:25.037Z,985.61
2023-01-21T03:03:35.331Z,985.61
2023-01-21T03:04:09.539Z,985.91
2023-01-21T03:04:40.334Z,985.91
2023-01-21T03:05:14.307Z,985.71
2023-01-21T03:07:37.619Z,985.81
2023-01-21T03:07:47.589Z,985.71
2023-01-21T03:08:19.480Z,985.71
2023-01-21T03:08:54.845Z,985.71
2023-01-21T03:09:46.551Z,985.71
2023-01-21T03:09:50.240Z,985.61
2023-01-21T03:10:35.225Z,985.61
2023-01-21T03:10:52.199Z,985.81
2023-01-21T03:11:22.301Z,985.81
2023-01-21T03:11:54.491Z,985.71
2023-01-21T03:12:25.985Z,985.71
2023-01-21T03:13:03.064Z,985.71
2023-01-21T03:13:28.227Z,985.71
2023-01-21T03:14:00.858Z,985.81
2023-01-21T03:14:31.073Z,985.81
2023-01-21T03:15:01.534Z,985.61
2023-01-21T03:15:31.990Z,985.61
2023-01-21T03:16:04.108Z,985.91
2023-01-21T03:16:35.033Z,985.91
2023-01-21T03:17:03.875Z,985.71
2023-01-21T03:19:08.093Z,985.71
2023-01-21T03:19:38.006Z,985.61
2023-01-21T03:20:34.646Z,985.81
2023-01-21T03:20:41.842Z,985.81
2023-01-21T03:21:17.916Z,985.81
2023-01-21T03:21:42.765Z,985.81
2023-01-21T03:22:15.776Z,985.81
2023-01-21T03:22:46.471Z,986.01
2023-01-21T03:23:17.488Z,986.01
2023-01-21T03:23:47.627Z,985.81
2023-01-21T03:24:19.547Z,985.81
2023-01-21T03:24:51.604Z,985.71
2023-01-21T03:25:21.676Z,985.71
2023-01-21T03:25:52.226Z,985.81
2023-01-21T03:26:33.203Z,985.81
2023-01-21T03:26:57.592Z,985.81
2023-01-21T03:27:24.923Z,985.81
2023-01-21T03:27:57.460Z,985.71
2023-01-21T03:28:26.724Z,985.71
2023-01-21T03:28:57.786Z,986.01
2023-01-21T03:29:28.304Z,986.01
2023-01-21T03:35:19.471Z,985.91
2023-01-21T03:35:51.926Z,985.61
2023-01-21T03:36:18.706Z,985.91
2023-01-21T03:36:51.307Z,985.91
2023-01-21T03:37:14.720Z,985.71
2023-01-21T03:38:22.488Z,985.71
2023-01-21T03:38:55.449Z,985.71
2023-01-21T03:39:19.464Z,985.71
2023-01-21T03:39:49.990Z,985.71
2023-01-21T03:40:19.786Z,985.71
2023-01-21T03:40:51.881Z,985.91
2023-01-21T03:41:36.484Z,985.91
2023-01-21T03:41:54.785Z,985.81
2023-01-21T03:42:23.893Z,985.81
2023-01-21T03:43:13.567Z,985.81
2023-01-21T03:43:25.965Z,985.81
2023-01-21T03:43:56.670Z,985.71
2023-01-21T03:44:27.248Z,985.71
2023-01-21T03:44:58.733Z,985.91
2023-01-21T03:45:32.878Z,985.91
2023-01-21T03:46:02.302Z,986.01
2023-01-21T03:46:33.097Z,986.01
2023-01-21T03:47:03.181Z,986.01
2023-01-21T03:47:34.396Z,986.01
2023-01-21T03:48:04.844Z,986.11
2023-01-21T03:48:35.088Z,986.11
2023-01-21T03:49:06.172Z,985.91
2023-01-21T03:49:37.662Z,985.91
2023-01-21T03:50:09.047Z,985.91
2023-01-21T03:50:40.579Z,985.91
2023-01-21T03:51:13.650Z,986.01
2023-01-21T03:51:42.813Z,986.01
2023-01-21T03:52:13.779Z,985.91
2023-01-21T03:52:44.234Z,985.91
2023-01-21T03:53:14.799Z,986.01
2023-01-21T03:53:45.809Z,985.81
2023-01-21T03:54:16.267Z,985.81
2023-01-21T03:54:48.059Z,985.81
2023-01-21T03:55:33.379Z,985.81
2023-01-21T03:55:49.567Z,985.81
2023-01-21T03:56:27.710Z,985.81
2023-01-21T03:59:54.689Z,985.91
2023-01-21T04:00:30.027Z,985.81
2023-01-21T04:01:01.677Z,985.91
2023-01-21T04:01:33.964Z,985.91
2023-01-21T04:02:03.312Z,985.81
2023-01-21T04:02:32.788Z,985.81
2023-01-21T04:03:03.725Z,985.91
2023-01-21T04:03:35.174Z,985.91
2023-01-21T04:04:06.223Z,985.91
2023-01-21T04:04:39.095Z,985.91
2023-01-21T04:05:11.075Z,986.01
2023-01-21T04:05:55.160Z,986.01
2023-01-21T04:06:12.248Z,986.01
2023-01-21T04:06:42.528Z,986.01
2023-01-21T04:07:43.484Z,985.91
2023-01-21T04:08:25.007Z,986.01
2023-01-21T04:08:44.586Z,986.01
2023-01-21T04:09:15.084Z,986.01
2023-01-21T04:09:45.633Z,986.01
2023-01-21T04:10:18.469Z,986.01
2023-01-21T04:10:47.849Z,985.91
2023-01-21T04:11:21.993Z,985.91
2023-01-21T04:11:51.621Z,986.01
2023-01-21T04:12:20.880Z,986.01
2023-01-21T04:12:53.917Z,986.01
2023-01-21T04:13:25.220Z,986.01
2023-01-21T04:13:55.189Z,986.11
2023-01-21T04:14:25.282Z,986.11
2023-01-21T04:14:56.600Z,985.91
2023-01-21T04:15:30.225Z,985.91
2023-01-21T04:16:31.048Z,986.01
2023-01-21T04:17:03.618Z,985.91
2023-01-21T04:17:33.416Z,985.91
2023-01-21T04:18:03.294Z,986.18
2023-01-21T04:18:34.583Z,986.18
2023-01-21T04:19:22.732Z,986.18
2023-01-21T04:19:35.228Z,986.18
2023-01-21T04:20:06.882Z,986.11
2023-01-21T04:20:37.922Z,986.11
2023-01-21T04:21:10.025Z,986.11
2023-01-21T04:21:41.115Z,986.11
2023-01-21T04:22:09.648Z,986.18
2023-01-21T04:22:43.283Z,986.18
2023-01-21T04:23:16.254Z,986.18
2023-01-21T04:23:48.074Z,986.18
2023-01-21T04:24:14.639Z,986.11
2023-01-21T04:24:54.639Z,986.18
2023-01-21T04:25:18.162Z,986.18
2023-01-21T04:25:47.393Z,985.91
2023-01-21T04:26:19.050Z,985.91
2023-01-21T04:26:49.412Z,986.11
2023-01-21T04:27:20.512Z,986.11
2023-01-21T04:27:52.664Z,986.11
2023-01-21T04:28:24.319Z,986.11
2023-01-21T04:28:54.430Z,986.18
2023-01-21T04:29:27.347Z,986.18
2023-01-21T04:29:55.318Z,986.11
2023-01-21T04:30:28.786Z,986.11
2023-01-21T04:30:58.989Z,986.18
2023-01-21T04:31:28.688Z,986.18
2023-01-21T04:32:00.334Z,986.11
2023-01-21T04:32:31.883Z,986.11
2023-01-21T04:33:03.484Z,986.11
2023-01-21T04:33:32.843Z,986.11
2023-01-21T04:34:03.330Z,985.91
2023-01-21T04:34:34.822Z,985.91
2023-01-21T04:35:05.695Z,986.01
2023-01-21T04:35:36.263Z,986.01
2023-01-21T04:36:07.676Z,986.11
2023-01-21T04:36:39.197Z,986.11
2023-01-21T04:37:09.062Z,985.91
2023-01-21T04:37:42.645Z,985.91
2023-01-21T04:38:13.187Z,986.18
2023-01-21T04:38:42.032Z,986.18
2023-01-21T04:39:13.470Z,986.01
2023-01-21T04:39:45.288Z,986.01
2023-01-21T04:40:16.614Z,986.18
2023-01-21T04:40:47.169Z,986.11
2023-01-21T04:41:17.255Z,986.11
2023-01-21T04:41:48.365Z,986.18
2023-01-21T04:42:20.082Z,986.18
2023-01-21T04:42:52.358Z,985.91
2023-01-21T04:43:23.107Z,985.91
2023-01-21T04:43:54.563Z,986.01
2023-01-21T04:44:24.373Z,986.01
2023-01-21T04:44:55.479Z,986.11
2023-01-21T04:45:26.943Z,986.11
2023-01-21T04:45:56.322Z,986.01
2023-01-21T04:46:28.252Z,986.01
2023-01-21T04:46:58.936Z,986.28
2023-01-21T04:47:28.927Z,986.28
2023-01-21T04:48:01.997Z,986.01
2023-01-21T04:48:32.971Z,986.01
2023-01-21T04:49:04.880Z,986.01
2023-01-21T04:49:35.318Z,986.01
2023-01-21T04:50:06.127Z,986.01
2023-01-21T04:50:54.518Z,986.01
2023-01-21T04:51:07.211Z,986.01
2023-01-21T04:51:37.850Z,986.01
2023-01-21T04:52:10.615Z,986.01
2023-01-21T04:52:39.277Z,986.01
2023-01-21T04:53:11.289Z,986.11
2023-01-21T04:53:43.208Z,986.11
2023-01-21T04:54:13.659Z,986.01
2023-01-21T04:54:44.674Z,986.01
2023-01-21T04:55:15.397Z,986.01
2023-01-21T04:55:46.728Z,986.18
2023-01-21T04:56:17.384Z,986.18
2023-01-21T04:56:47.550Z,986.01
2023-01-21T04:57:19.036Z,986.01
2023-01-21T04:57:49.606Z,985.81
2023-01-21T04:58:20.859Z,985.81
2023-01-21T04:58:52.213Z,986.11
2023-01-21T04:59:23.931Z,986.11
2023-01-21T04:59:54.047Z,985.91
2023-01-21T05:00:42.482Z,985.91
2023-01-21T05:01:01.199Z,986.11
2023-01-21T05:01:28.489Z,986.11
2023-01-21T05:01:59.007Z,986.01
2023-01-21T05:02:29.621Z,986.01
2023-01-21T05:03:00.209Z,986.11
2023-01-21T05:03:31.301Z,986.11
2023-01-21T05:04:01.140Z,985.91
2023-01-21T05:04:32.867Z,985.91
2023-01-21T05:05:02.771Z,986.11
2023-01-21T05:05:34.298Z,986.11
2023-01-21T05:06:04.677Z,986.11
2023-01-21T05:06:37.657Z,986.11
2023-01-21T05:07:11.707Z,986.28
2023-01-21T05:08:08.955Z,986.11
2023-01-21T05:08:40.257Z,986.11
2023-01-21T05:09:29.487Z,986.18
2023-01-21T05:09:42.329Z,986.18
2023-01-21T05:10:13.893Z,986.01
2023-01-21T05:10:43.642Z,986.01
2023-01-21T05:11:19.124Z,986.11
2023-01-21T05:11:45.953Z,986.11
2023-01-21T05:12:16.717Z,986.11
2023-01-21T05:12:48.079Z,986.01
2023-01-21T05:13:20.422Z,986.01
2023-01-21T05:13:50.893Z,986.28
2023-01-21T05:14:21.634Z,986.28
2023-01-21T05:14:51.910Z,986.01
2023-01-21T05:15:23.596Z,986.01
2023-01-21T05:16:25.452Z,986.11
2023-01-21T05:16:56.253Z,986.28
2023-01-21T05:17:27.882Z,986.28
2023-01-21T05:17:59.395Z,986.18
2023-01-21T05:18:31.444Z,986.18
2023-01-21T05:19:10.498Z,986.28
2023-01-21T05:19:31.812Z,986.28
2023-01-21T05:20:02.675Z,986.18
2023-01-21T05:20:34.527Z,986.18
2023-01-21T05:21:05.125Z,986.11
2023-01-21T05:21:35.047Z,986.11
2023-01-21T05:22:05.725Z,986.11
2023-01-21T05:22:38.777Z,986.11
2023-01-21T05:23:09.142Z,986.18
2023-01-21T05:23:39.964Z,986.18
2023-01-21T05:24:11.729Z,986.39
2023-01-21T05:24:42.923Z,986.39
2023-01-21T05:25:14.584Z,986.18
2023-01-21T05:25:44.577Z,986.18
2023-01-21T05:26:14.226Z,986.49
2023-01-21T05:26:44.986Z,986.28
2023-01-21T05:27:16.575Z,986.28
2023-01-21T05:27:49.093Z,986.39
2023-01-21T05:28:18.340Z,986.39
2023-01-21T05:28:49.428Z,986.18
2023-01-21T05:29:20.556Z,986.18
2023-01-21T05:29:52.508Z,986.18
2023-01-21T05:30:25.841Z,986.18
2023-01-21T05:30:53.686Z,986.18
2023-01-21T05:31:24.131Z,986.18
2023-01-21T05:31:56.269Z,986.28
2023-01-21T05:32:29.174Z,986.28
2023-01-21T05:32:58.120Z,986.28
2023-01-21T05:33:27.699Z,986.28
2023-01-21T05:33:59.174Z,986.28
2023-01-21T05:34:30.862Z,986.28
2023-01-21T05:35:01.224Z,986.39
2023-01-21T05:35:32.796Z,986.39
2023-01-21T05:36:03.915Z,986.49
2023-01-21T05:36:41.616Z,986.49
2023-01-21T05:37:05.425Z,986.28
2023-01-21T05:37:42.793Z,986.28
2023-01-21T05:38:08.590Z,986.39
2023-01-21T05:38:39.266Z,986.39
2023-01-21T05:39:11.515Z,986.11
2023-01-21T05:39:41.658Z,986.11
2023-01-21T05:40:14.264Z,986.39
2023-01-21T05:40:54.096Z,986.39
2023-01-21T05:41:13.206Z,986.39
2023-01-21T05:42:03.404Z,986.39
2023-01-21T05:42:18.623Z,986.39
2023-01-21T05:42:45.857Z,986.39
2023-01-21T05:43:16.872Z,986.39
2023-01-21T05:43:49.166Z,986.28
2023-01-21T05:44:20.273Z,986.28
2023-01-21T05:44:51.627Z,986.49
2023-01-21T05:45:24.391Z,986.49
2023-01-21T05:45:55.046Z,986.49
2023-01-21T05:46:25.021Z,986.49
2023-01-21T05:46:54.640Z,986.28
2023-01-21T05:47:25.150Z,986.28
2023-01-21T05:47:55.920Z,986.28
2023-01-21T05:48:27.136Z,986.28
2023-01-21T05:48:58.806Z,986.28
2023-01-21T05:49:30.135Z,986.28
2023-01-21T05:50:02.448Z,986.28
2023-01-21T05:50:48.648Z,986.18
2023-01-21T05:51:02.499Z,986.18
2023-01-21T05:51:33.690Z,986.18
2023-01-21T05:52:04.953Z,986.28
2023-01-21T05:52:35.989Z,986.28
2023-01-21T05:53:06.853Z,986.28
2023-01-21T05:53:37.452Z,986.28
2023-01-21T05:54:08.870Z,986.39
2023-01-21T05:54:49.159Z,986.39
2023-01-21T05:55:12.041Z,986.28
2023-01-21T05:55:43.431Z,986.28
2023-01-21T05:56:12.998Z,986.28
2023-01-21T05:56:43.948Z,986.28
2023-01-21T05:57:15.572Z,986.39
2023-01-21T05:57:45.824Z,986.49
2023-01-21T05:58:16.281Z,986.49
2023-01-21T06:05:30.561Z,986.39
2023-01-21T06:06:03.115Z,986.49
2023-01-21T06:06:35.154Z,986.49
2023-01-21T06:10:10.870Z,986.28
2023-01-21T06:10:44.741Z,986.39
2023-01-21T06:11:10.595Z,986.49
2023-01-21T06:11:41.991Z,986.49
2023-01-21T06:12:14.218Z,986.39
2023-01-21T06:12:45.030Z,986.39
2023-01-21T06:13:20.904Z,986.49
2023-01-21T06:13:56.980Z,986.59
2023-01-21T06:14:17.186Z,986.59
2023-01-21T06:14:49.012Z,986.59
2023-01-21T06:15:30.885Z,986.59
2023-01-21T06:16:20.066Z,986.59
2023-01-21T06:16:58.729Z,986.69
2023-01-21T06:17:24.086Z,986.69
2023-01-21T06:17:55.631Z,986.49
2023-01-21T06:18:26.372Z,986.49
2023-01-21T06:18:57.156Z,986.69
2023-01-21T06:19:28.031Z,986.69
2023-01-21T06:19:57.839Z,986.59
2023-01-21T06:20:28.857Z,986.59
2023-01-21T06:20:59.973Z,986.59
2023-01-21T06:21:55.796Z,986.59
2023-01-21T06:23:02.058Z,986.69
2023-01-21T06:23:45.359Z,986.59
2023-01-21T06:24:31.782Z,986.79
2023-01-21T06:24:38.625Z,986.79
2023-01-21T06:25:07.866Z,986.49
2023-01-21T06:25:39.486Z,986.49
2023-01-21T06:26:10.102Z,986.69
2023-01-21T06:27:16.202Z,986.69
2023-01-21T06:27:43.198Z,986.69
2023-01-21T06:28:16.642Z,986.49
2023-01-21T06:28:46.219Z,986.79
2023-01-21T06:29:16.873Z,986.79
2023-01-21T06:29:47.652Z,986.49
2023-01-21T06:31:23.995Z,986.49
2023-01-21T06:32:22.417Z,986.59
2023-01-21T06:32:53.161Z,986.69
2023-01-21T06:33:24.103Z,986.69
2023-01-21T06:33:55.608Z,986.79
2023-01-21T06:34:58.351Z,986.69
2023-01-21T06:35:29.529Z,986.69
2023-01-21T06:35:59.492Z,986.79
2023-01-21T06:36:47.068Z,986.79
2023-01-21T06:37:05.703Z,986.79
2023-01-21T06:37:34.105Z,986.79
2023-01-21T06:38:04.229Z,986.49
2023-01-21T06:38:35.020Z,986.49
2023-01-21T06:39:09.958Z,986.59
2023-01-21T06:39:36.297Z,986.59
2023-01-21T06:40:07.661Z,986.79
2023-01-21T06:40:54.182Z,986.79
2023-01-21T06:41:09.260Z,986.79
2023-01-21T06:41:40.975Z,986.79
2023-01-21T06:42:12.792Z,986.69
2023-01-21T06:42:48.098Z,986.69
2023-01-21T06:43:14.403Z,986.69
2023-01-21T06:43:44.793Z,986.69
2023-01-21T06:44:15.587Z,986.79
2023-01-21T06:44:59.052Z,986.59
2023-01-21T06:45:18.772Z,986.59
2023-01-21T06:45:49.888Z,986.89
2023-01-21T06:46:31.920Z,986.89
2023-01-21T06:47:00.031Z,986.79
2023-01-21T06:47:21.835Z,986.79
2023-01-21T06:47:53.077Z,986.79
2023-01-21T06:48:24.862Z,986.79
2023-01-21T06:48:55.746Z,987.00
2023-01-21T06:49:26.103Z,987.00
2023-01-21T06:49:56.911Z,986.69
2023-01-21T06:50:28.250Z,986.69
2023-01-21T06:50:58.740Z,986.89
2023-01-21T06:51:29.263Z,986.89
2023-01-21T06:52:00.999Z,987.00
2023-01-21T06:52:31.257Z,987.00
2023-01-21T06:53:34.653Z,986.89
2023-01-21T06:54:05.029Z,987.00
2023-01-21T06:54:36.255Z,987.00
2023-01-21T06:55:08.017Z,986.79
2023-01-21T06:55:38.142Z,986.79
2023-01-21T06:56:08.830Z,986.89
2023-01-21T06:56:39.438Z,986.89
2023-01-21T06:57:10.790Z,987.00
2023-01-21T06:57:41.451Z,987.00
2023-01-21T06:58:12.045Z,986.79
2023-01-21T06:58:45.170Z,986.79
2023-01-21T06:59:15.708Z,986.79
2023-01-21T06:59:46.840Z,986.79
2023-01-21T07:00:17.856Z,986.79
2023-01-21T07:00:47.520Z,986.89
2023-01-21T07:01:18.006Z,986.89
2023-01-21T07:01:58.326Z,986.79
2023-01-21T07:02:21.117Z,986.79
2023-01-21T07:02:54.702Z,987.00
2023-01-21T07:03:26.265Z,987.00
2023-01-21T07:03:55.885Z,986.79
2023-01-21T07:04:59.086Z,986.89
2023-01-21T07:05:32.872Z,986.89
2023-01-21T07:05:58.035Z,987.00
2023-01-21T07:06:35.662Z,987.00
2023-01-21T07:07:07.035Z,987.00
2023-01-21T07:07:30.752Z,987.00
2023-01-21T07:08:23.293Z,987.10
2023-01-21T07:08:32.529Z,987.10
2023-01-21T07:09:04.568Z,987.00
2023-01-21T07:09:35.636Z,987.00
2023-01-21T07:10:07.050Z,986.79
2023-01-21T07:11:09.861Z,987.00
2023-01-21T07:11:38.145Z,987.00
2023-01-21T07:12:09.524Z,987.10
2023-01-21T07:12:40.821Z,987.10
2023-01-21T07:13:11.938Z,987.00
2023-01-21T07:14:04.846Z,987.00
2023-01-21T07:14:14.799Z,987.00
2023-01-21T07:14:45.706Z,987.00
2023-01-21T07:15:17.787Z,987.00
2023-01-21T07:15:49.589Z,987.20
2023-01-21T07:16:35.996Z,987.20
2023-01-21T07:16:52.285Z,987.30
2023-01-21T07:17:30.344Z,987.30
2023-01-21T07:18:21.405Z,987.40
2023-01-21T07:18:52.453Z,987.30
2023-01-21T07:19:24.313Z,987.30